createdAt,value
2019-03-27T00:02:31.458Z,68.78
2019-03-27T00:05:04.432Z,68.96
2019-03-27T00:07:37.075Z,68.94
2019-03-27T00:10:11.298Z,69.06
2019-03-27T00:12:43.854Z,69.11
2019-03-27T00:15:18.337Z,69.25
2019-03-27T00:17:51.157Z,69.44
2019-03-27T00:20:24.083Z,69.59
2019-03-27T00:22:56.666Z,69.54
2019-03-27T00:25:29.351Z,69.52
2019-03-27T00:28:02.004Z,69.67
2019-03-27T00:30:34.818Z,69.69
2019-03-27T00:33:07.762Z,69.70
2019-03-27T00:35:40.567Z,69.82
2019-03-27T00:38:13.193Z,70.00
2019-03-27T00:40:45.850Z,70.06
2019-03-27T00:43:18.477Z,70.14
2019-03-27T00:45:51.289Z,70.27
2019-03-27T00:48:25.354Z,70.28
2019-03-27T00:50:58.188Z,70.46
2019-03-27T00:53:30.812Z,70.67
2019-03-27T00:56:03.629Z,70.98
2019-03-27T00:58:36.239Z,70.99
2019-03-27T01:01:15.115Z,70.92
2019-03-27T01:03:47.961Z,70.90
2019-03-27T01:06:20.832Z,70.84
2019-03-27T01:08:53.631Z,70.83
2019-03-27T01:11:26.356Z,70.87
2019-03-27T01:13:58.946Z,71.00
2019-03-27T01:16:31.742Z,71.20
2019-03-27T01:19:04.706Z,71.11
2019-03-27T01:21:37.584Z,71.25
2019-03-27T01:24:10.216Z,71.23
2019-03-27T01:26:42.869Z,71.12
2019-03-27T01:29:15.426Z,71.19
2019-03-27T01:31:48.258Z,71.25
2019-03-27T01:34:21.162Z,71.29
2019-03-27T01:36:54.014Z,71.40
2019-03-27T01:39:26.613Z,71.58
2019-03-27T01:41:59.473Z,71.50
2019-03-27T01:44:32.044Z,71.61
2019-03-27T01:47:04.838Z,71.65
2019-03-27T01:49:37.764Z,71.74
2019-03-27T01:52:11.020Z,72.03
2019-03-27T01:54:43.584Z,72.04
2019-03-27T01:57:16.279Z,72.12
2019-03-27T01:59:48.872Z,72.40
2019-03-27T02:02:21.522Z,72.25
2019-03-27T02:04:54.373Z,72.25
2019-03-27T02:07:27.331Z,72.29
2019-03-27T02:09:59.922Z,72.46
2019-03-27T02:12:32.633Z,72.44
2019-03-27T02:15:05.487Z,72.48
2019-03-27T02:17:38.538Z,72.46
2019-03-27T02:20:11.811Z,72.64
2019-03-27T02:22:44.618Z,72.71
2019-03-27T02:25:17.231Z,72.51
2019-03-27T02:27:49.911Z,72.44
2019-03-27T02:30:22.524Z,72.54
2019-03-27T02:32:55.465Z,72.65
2019-03-27T02:35:28.585Z,72.57
2019-03-27T02:38:01.428Z,72.57
2019-03-27T02:40:34.174Z,72.56
2019-03-27T02:43:06.898Z,72.44
2019-03-27T02:45:39.457Z,72.14
2019-03-27T02:48:14.152Z,72.25
2019-03-27T02:50:46.805Z,72.20
2019-03-27T02:53:19.498Z,72.26
2019-03-27T02:55:52.058Z,72.45
2019-03-27T02:58:24.766Z,72.36
2019-03-27T03:00:57.334Z,72.60
2019-03-27T03:03:30.450Z,72.51
2019-03-27T03:06:03.275Z,72.39
2019-03-27T03:08:36.055Z,72.35
2019-03-27T03:11:08.681Z,72.50
2019-03-27T03:13:41.633Z,72.40
2019-03-27T03:16:14.233Z,72.41
2019-03-27T03:18:47.992Z,72.41
2019-03-27T03:21:20.825Z,72.52
2019-03-27T03:23:55.033Z,72.38
2019-03-27T03:26:27.745Z,72.49
2019-03-27T03:29:00.868Z,72.50
2019-03-27T03:31:33.463Z,72.45
2019-03-27T03:34:06.481Z,72.51
2019-03-27T03:36:39.390Z,72.31
2019-03-27T03:39:12.011Z,72.40
2019-03-27T03:41:44.653Z,72.42
2019-03-27T03:44:17.458Z,72.47
2019-03-27T03:46:59.536Z,72.51
2019-03-27T03:49:24.663Z,72.42
2019-03-27T03:51:58.228Z,72.54
2019-03-27T03:54:31.163Z,72.54
2019-03-27T03:57:05.852Z,72.61
2019-03-27T03:59:40.527Z,72.52
2019-03-27T04:02:16.117Z,72.62
2019-03-27T04:04:50.681Z,72.72
2019-03-27T04:07:23.512Z,72.67
2019-03-27T04:09:56.252Z,72.69
2019-03-27T04:12:28.826Z,72.68
2019-03-27T04:15:01.472Z,72.58
2019-03-27T04:17:34.153Z,72.52
2019-03-27T04:20:07.795Z,72.61
2019-03-27T04:22:40.634Z,72.54
2019-03-27T04:25:13.634Z,72.53
2019-03-27T04:27:47.629Z,72.63
2019-03-27T04:30:20.348Z,72.53
2019-03-27T04:32:52.972Z,72.49
2019-03-27T04:35:25.612Z,72.52
2019-03-27T04:37:58.746Z,72.36
2019-03-27T04:40:31.433Z,72.40
2019-03-27T04:43:04.084Z,72.42
2019-03-27T04:45:49.205Z,72.26
2019-03-27T04:48:21.803Z,72.17
2019-03-27T04:50:54.464Z,72.17
2019-03-27T04:53:27.063Z,72.17
2019-03-27T04:56:01.189Z,72.12
2019-03-27T04:58:33.817Z,72.04
2019-03-27T05:01:06.756Z,71.94
2019-03-27T05:03:40.551Z,71.88
2019-03-27T05:06:13.184Z,71.80
2019-03-27T05:08:46.025Z,71.73
2019-03-27T05:11:18.766Z,71.84
2019-03-27T05:13:51.346Z,71.91
2019-03-27T05:16:23.999Z,71.71
2019-03-27T05:18:56.557Z,71.76
2019-03-27T05:21:29.183Z,71.80
2019-03-27T05:24:01.755Z,71.58
2019-03-27T05:26:34.697Z,71.48
2019-03-27T05:29:07.282Z,71.23
2019-03-27T05:31:40.153Z,71.06
2019-03-27T05:34:13.741Z,70.97
2019-03-27T05:36:46.637Z,70.70
2019-03-27T05:39:19.695Z,70.69
2019-03-27T05:41:52.715Z,70.51
2019-03-27T05:44:25.315Z,70.37
2019-03-27T05:46:58.086Z,70.08
2019-03-27T05:49:30.677Z,69.79
2019-03-27T05:52:03.484Z,69.74
2019-03-27T05:54:36.127Z,69.42
2019-03-27T05:57:08.753Z,69.13
2019-03-27T05:59:41.400Z,69.13
2019-03-27T06:02:14.123Z,68.77
2019-03-27T06:04:46.789Z,68.47
2019-03-27T06:07:19.359Z,68.41
2019-03-27T06:09:52.015Z,68.26
2019-03-27T06:12:24.631Z,67.95
2019-03-27T06:14:57.240Z,67.92
2019-03-27T06:17:29.898Z,67.73
2019-03-27T06:20:02.519Z,67.45
2019-03-27T06:22:35.410Z,67.21
2019-03-27T06:25:08.202Z,67.07
2019-03-27T06:27:40.934Z,66.62
2019-03-27T06:30:16.035Z,66.45
2019-03-27T06:32:48.648Z,66.21
2019-03-27T06:35:21.812Z,65.85
2019-03-27T06:37:54.566Z,65.52
2019-03-27T06:40:28.498Z,65.33
2019-03-27T06:43:01.547Z,64.99
2019-03-27T06:45:34.134Z,64.67
2019-03-27T06:48:07.115Z,64.26
2019-03-27T06:50:39.712Z,63.92
2019-03-27T06:53:12.684Z,63.67
2019-03-27T06:55:45.394Z,63.21
2019-03-27T06:58:18.088Z,63.52
2019-03-27T07:00:50.693Z,62.52
2019-03-27T07:03:23.344Z,62.63
2019-03-27T07:05:55.919Z,61.88
2019-03-27T07:08:28.944Z,61.93
2019-03-27T07:11:01.738Z,61.90
2019-03-27T07:13:34.542Z,61.70
2019-03-27T07:16:07.238Z,61.61
2019-03-27T07:18:40.712Z,61.46
2019-03-27T07:21:13.579Z,61.31
2019-03-27T07:23:46.602Z,61.43
2019-03-27T07:26:19.610Z,61.02
2019-03-27T07:28:52.252Z,60.61
2019-03-27T07:31:24.873Z,61.02
2019-03-27T07:33:57.711Z,60.38
2019-03-27T07:36:30.362Z,59.73
2019-03-27T07:39:11.056Z,59.10
2019-03-27T07:41:37.612Z,59.46
2019-03-27T07:44:10.498Z,59.33
2019-03-27T07:46:43.070Z,58.43
2019-03-27T07:49:15.951Z,57.94
2019-03-27T07:51:48.624Z,57.51
2019-03-27T07:54:21.437Z,58.25
2019-03-27T07:56:54.265Z,57.92
2019-03-27T07:59:27.043Z,57.08
2019-03-27T08:02:00.068Z,56.82
2019-03-27T08:04:32.651Z,57.05
2019-03-27T08:07:05.276Z,56.79
2019-03-27T08:09:38.020Z,56.71
2019-03-27T08:12:10.940Z,55.63
2019-03-27T08:14:43.898Z,55.75
2019-03-27T08:17:16.596Z,55.04
2019-03-27T08:19:49.662Z,54.01
2019-03-27T08:22:23.394Z,53.35
2019-03-27T08:24:56.240Z,53.37
2019-03-27T08:27:29.058Z,52.04
2019-03-27T08:30:01.793Z,52.28
2019-03-27T08:32:37.427Z,52.11
2019-03-27T08:35:10.038Z,51.07
2019-03-27T08:37:42.939Z,50.44
2019-03-27T08:40:16.621Z,50.59
2019-03-27T08:42:49.583Z,49.84
2019-03-27T08:45:22.399Z,49.91
2019-03-27T08:47:55.016Z,49.42
2019-03-27T08:50:27.765Z,49.39
2019-03-27T08:53:00.485Z,48.59
2019-03-27T08:55:33.133Z,49.22
2019-03-27T08:58:06.272Z,48.53
2019-03-27T09:00:57.263Z,48.08
2019-03-27T09:03:29.824Z,48.15
2019-03-27T09:06:02.883Z,48.43
2019-03-27T09:08:35.489Z,48.40
2019-03-27T09:11:08.349Z,48.58
2019-03-27T09:13:41.224Z,48.62
2019-03-27T09:16:14.131Z,47.87
2019-03-27T09:18:46.698Z,47.37
2019-03-27T09:21:19.497Z,47.78
2019-03-27T09:23:52.119Z,47.22
2019-03-27T09:26:25.055Z,46.21
2019-03-27T09:28:58.692Z,45.40
2019-03-27T09:31:43.969Z,46.47
2019-03-27T09:34:05.580Z,47.39
2019-03-27T09:36:38.435Z,47.19
2019-03-27T09:39:12.583Z,46.41
2019-03-27T09:41:45.440Z,47.04
2019-03-27T09:44:18.511Z,45.21
2019-03-27T09:46:51.255Z,46.02
2019-03-27T09:49:23.893Z,45.81
2019-03-27T09:51:57.698Z,44.28
2019-03-27T09:54:30.309Z,45.03
2019-03-27T09:57:03.756Z,44.64
2019-03-27T09:59:36.362Z,44.36
2019-03-27T10:02:09.212Z,43.80
2019-03-27T10:04:41.827Z,43.98
2019-03-27T10:07:14.701Z,44.26
2019-03-27T10:09:50.204Z,43.85
2019-03-27T10:12:21.664Z,43.87
2019-03-27T10:14:54.607Z,45.11
2019-03-27T10:17:27.351Z,43.72
2019-03-27T10:20:03.523Z,41.83
2019-03-27T10:22:34.565Z,42.54
2019-03-27T10:25:08.563Z,41.90
2019-03-27T10:27:41.253Z,40.02
2019-03-27T10:30:14.525Z,40.78
2019-03-27T10:32:47.168Z,41.74
2019-03-27T10:35:22.516Z,38.25
2019-03-27T10:37:55.469Z,38.43
2019-03-27T10:40:28.042Z,38.68
2019-03-27T10:43:00.819Z,36.86
2019-03-27T10:45:33.651Z,37.62
2019-03-27T10:48:06.491Z,37.66
2019-03-27T10:50:39.113Z,36.38
2019-03-27T10:53:14.516Z,37.95
2019-03-27T10:55:48.493Z,36.87
2019-03-27T10:58:21.329Z,38.53
2019-03-27T11:00:54.264Z,37.66
2019-03-27T11:03:27.283Z,36.68
2019-03-27T11:05:59.959Z,38.63
2019-03-27T11:08:32.652Z,37.94
2019-03-27T11:11:05.286Z,35.98
2019-03-27T11:13:38.319Z,35.63
2019-03-27T11:16:11.148Z,35.49
2019-03-27T11:18:44.090Z,35.06
2019-03-27T11:21:16.690Z,33.79
2019-03-27T11:23:49.572Z,33.67
2019-03-27T11:26:22.124Z,33.64
2019-03-27T11:28:55.117Z,33.83
2019-03-27T11:31:27.700Z,35.00
2019-03-27T11:34:00.396Z,35.48
2019-03-27T11:36:35.213Z,33.32
2019-03-27T11:39:12.393Z,31.73
2019-03-27T11:41:44.973Z,29.88
2019-03-27T11:44:17.676Z,31.78
2019-03-27T11:46:50.359Z,31.22
2019-03-27T11:49:23.028Z,31.51
2019-03-27T11:51:55.587Z,30.68
2019-03-27T11:54:28.577Z,30.64
2019-03-27T11:57:01.225Z,30.38
2019-03-27T11:59:33.854Z,30.65
2019-03-27T12:02:09.623Z,30.18
2019-03-27T12:04:42.470Z,31.32
2019-03-27T12:07:16.137Z,30.75
2019-03-27T12:09:48.833Z,30.42
2019-03-27T12:12:21.432Z,28.90
2019-03-27T12:14:54.173Z,29.85
2019-03-27T12:17:26.770Z,29.95
2019-03-27T12:19:59.674Z,30.20
2019-03-27T12:22:32.431Z,30.18
2019-03-27T12:25:06.966Z,30.31
2019-03-27T12:27:42.284Z,31.43
2019-03-27T12:30:15.103Z,30.21
2019-03-27T12:32:49.178Z,30.17
2019-03-27T12:35:22.013Z,30.60
2019-03-27T12:37:54.863Z,29.61
2019-03-27T12:43:06.515Z,22.92
2019-03-27T12:45:39.137Z,22.27
2019-03-27T12:48:14.288Z,23.05
2019-03-27T12:50:46.671Z,23.62
2019-03-27T12:53:19.488Z,23.20
2019-03-27T12:55:52.158Z,20.22
2019-03-27T12:58:24.890Z,16.97
2019-03-27T13:00:57.552Z,15.13
2019-03-27T13:03:30.509Z,14.75
2019-03-27T13:06:03.157Z,13.67
2019-03-27T13:08:39.121Z,13.17
2019-03-27T13:11:11.785Z,12.88
2019-03-27T13:13:44.486Z,11.97
2019-03-27T13:16:17.124Z,11.50
2019-03-27T13:18:49.946Z,11.34
2019-03-27T13:21:26.584Z,10.86
2019-03-27T13:23:56.907Z,10.14
2019-03-27T13:26:29.577Z,9.76
2019-03-27T13:29:02.266Z,9.24
2019-03-27T13:31:34.878Z,10.23
2019-03-27T13:34:08.082Z,9.98
2019-03-27T13:36:45.827Z,8.94
2019-03-27T13:39:18.598Z,8.62
2019-03-27T13:41:51.232Z,8.09
2019-03-27T13:44:36.382Z,7.98
2019-03-27T13:46:58.450Z,8.40
2019-03-27T13:49:31.654Z,8.14
2019-03-27T13:52:04.262Z,7.42
2019-03-27T13:54:37.131Z,7.70
2019-03-27T13:57:09.728Z,8.02
2019-03-27T13:59:42.438Z,7.59
2019-03-27T14:02:15.125Z,7.34
2019-03-27T14:04:47.993Z,7.41
2019-03-27T14:07:20.601Z,7.52
2019-03-27T14:09:53.164Z,6.92
2019-03-27T14:12:25.835Z,7.54
2019-03-27T14:14:59.747Z,7.81
2019-03-27T14:17:32.354Z,7.92
2019-03-27T14:20:06.087Z,7.43
2019-03-27T14:22:39.686Z,7.04
2019-03-27T14:25:14.210Z,7.34
2019-03-27T14:27:46.814Z,7.20
2019-03-27T14:30:51.458Z,7.80
2019-03-27T14:33:24.494Z,8.07
2019-03-27T14:36:03.130Z,7.46
2019-03-27T14:38:35.728Z,6.76
2019-03-27T14:41:08.682Z,6.74
2019-03-27T14:43:41.279Z,7.82
2019-03-27T14:46:14.154Z,9.52
2019-03-27T14:48:46.757Z,8.95
2019-03-27T14:51:19.928Z,8.39
2019-03-27T14:53:52.561Z,8.34
2019-03-27T14:56:25.299Z,8.17
2019-03-27T14:58:57.896Z,7.70
2019-03-27T15:01:30.963Z,7.88
2019-03-27T15:04:03.596Z,8.32
2019-03-27T15:06:36.277Z,8.70
2019-03-27T15:09:10.398Z,8.85
2019-03-27T15:11:43.208Z,9.18
2019-03-27T15:14:15.797Z,9.39
2019-03-27T15:16:48.572Z,11.11
2019-03-27T15:19:21.485Z,11.02
2019-03-27T15:21:54.968Z,12.26
2019-03-27T15:24:27.680Z,14.46
2019-03-27T15:27:00.542Z,15.51
2019-03-27T15:29:33.106Z,17.13
2019-03-27T15:32:06.295Z,19.64
2019-03-27T15:34:38.938Z,17.30
2019-03-27T15:37:11.972Z,16.78
2019-03-27T15:39:44.537Z,20.00
2019-03-27T15:42:17.432Z,23.91
2019-03-27T15:44:50.090Z,25.13
2019-03-27T15:47:23.008Z,27.92
2019-03-27T15:49:55.660Z,29.44
2019-03-27T15:52:36.510Z,30.66
2019-03-27T15:55:03.195Z,30.98
2019-03-27T15:57:36.083Z,31.72
2019-03-27T16:00:09.748Z,32.72
2019-03-27T16:02:43.115Z,33.15
2019-03-27T16:05:15.809Z,33.27
2019-03-27T16:07:48.735Z,34.09
2019-03-27T16:10:21.297Z,35.32
2019-03-27T16:12:54.343Z,35.20
2019-03-27T16:15:26.930Z,35.67
2019-03-27T16:17:59.872Z,36.25
2019-03-27T16:20:32.533Z,36.34
2019-03-27T16:23:05.751Z,36.95
2019-03-27T16:25:38.555Z,37.00
2019-03-27T16:28:11.735Z,37.54
2019-03-27T16:30:44.402Z,37.81
2019-03-27T16:33:17.018Z,37.56
2019-03-27T16:35:49.635Z,38.22
2019-03-27T16:38:22.693Z,37.84
2019-03-27T16:40:55.299Z,37.86
2019-03-27T16:43:27.973Z,38.66
2019-03-27T16:46:00.593Z,38.79
2019-03-27T16:48:35.551Z,39.21
2019-03-27T16:51:08.177Z,39.23
2019-03-27T16:53:41.183Z,39.12
2019-03-27T16:56:14.265Z,39.78
2019-03-27T16:58:46.883Z,39.43
2019-03-27T17:01:19.478Z,39.17
2019-03-27T17:03:52.429Z,39.21
2019-03-27T17:06:25.063Z,38.63
2019-03-27T17:08:57.881Z,38.92
2019-03-27T17:11:31.891Z,39.00
2019-03-27T17:14:04.547Z,39.05
2019-03-27T17:16:37.154Z,38.98
2019-03-27T17:19:09.852Z,38.70
2019-03-27T17:21:42.473Z,39.16
2019-03-27T17:24:17.533Z,39.14
2019-03-27T17:26:50.282Z,39.42
2019-03-27T17:29:25.930Z,39.96
2019-03-27T17:31:58.530Z,40.08
2019-03-27T17:34:32.746Z,39.80
2019-03-27T17:37:05.384Z,39.73
2019-03-27T17:39:38.356Z,39.90
2019-03-27T17:42:11.098Z,39.78
2019-03-27T17:44:44.020Z,39.52
2019-03-27T17:47:16.639Z,39.31
2019-03-27T17:49:49.479Z,39.34
2019-03-27T17:52:23.258Z,39.53
2019-03-27T17:54:56.260Z,39.33
2019-03-27T17:57:28.996Z,39.59
2019-03-27T18:00:01.660Z,39.81
2019-03-27T18:02:35.916Z,39.83
2019-03-27T18:05:08.959Z,40.06
2019-03-27T18:07:41.631Z,40.48
2019-03-27T18:10:22.789Z,40.39
2019-03-27T18:12:55.415Z,40.69
2019-03-27T18:15:28.263Z,40.74
2019-03-27T18:18:01.024Z,40.91
2019-03-27T18:20:33.928Z,40.97
2019-03-27T18:23:08.698Z,41.33
2019-03-27T18:25:44.123Z,41.66
2019-03-27T18:28:17.010Z,41.70
2019-03-27T18:30:49.975Z,42.18
2019-03-27T18:33:22.670Z,42.28
2019-03-27T18:35:58.010Z,42.72
2019-03-27T18:38:30.791Z,42.65
2019-03-27T18:41:03.766Z,42.76
2019-03-27T18:43:36.513Z,42.64
2019-03-27T18:46:09.436Z,42.84
2019-03-27T18:48:42.073Z,43.07
2019-03-27T18:51:15.023Z,43.49
2019-03-27T18:53:59.072Z,43.68
2019-03-27T18:56:31.116Z,43.68
2019-03-27T18:59:03.876Z,43.55
2019-03-27T19:01:36.908Z,43.52
2019-03-27T19:04:09.578Z,44.05
2019-03-27T19:06:42.557Z,43.46
2019-03-27T19:09:15.259Z,43.49
2019-03-27T19:11:48.079Z,43.50
2019-03-27T19:14:22.010Z,43.41
2019-03-27T19:16:54.928Z,44.09
2019-03-27T19:19:27.602Z,43.85
2019-03-27T19:22:01.064Z,43.82
2019-03-27T19:24:34.195Z,43.84
2019-03-27T19:27:07.346Z,44.44
2019-03-27T19:29:44.957Z,44.47
2019-03-27T19:32:18.503Z,44.49
2019-03-27T19:34:51.299Z,45.17
2019-03-27T19:37:24.455Z,45.05
2019-03-27T19:40:01.147Z,45.43
2019-03-27T19:42:34.319Z,45.89
2019-03-27T19:45:07.821Z,46.25
2019-03-27T19:47:40.904Z,46.73
2019-03-27T19:50:13.752Z,46.68
2019-03-27T19:52:46.804Z,46.59
2019-03-27T19:55:19.526Z,46.74
2019-03-27T19:57:52.292Z,47.13
2019-03-27T20:00:26.043Z,47.57
2019-03-27T20:02:59.062Z,47.51
2019-03-27T20:05:31.706Z,47.76
2019-03-27T20:08:04.728Z,48.34
2019-03-27T20:10:37.549Z,48.33
2019-03-27T20:13:10.767Z,48.88
2019-03-27T20:15:43.858Z,48.91
2019-03-27T20:18:21.855Z,49.42
2019-03-27T20:20:54.840Z,49.27
2019-03-27T20:23:27.544Z,49.52
2019-03-27T20:26:00.212Z,49.40
2019-03-27T20:28:33.435Z,49.70
2019-03-27T20:31:06.106Z,50.00
2019-03-27T20:33:39.098Z,50.31
2019-03-27T20:36:13.146Z,50.10
2019-03-27T20:38:46.492Z,50.17
2019-03-27T20:41:19.320Z,50.59
2019-03-27T20:43:52.690Z,51.00
2019-03-27T20:46:29.008Z,50.77
2019-03-27T20:48:59.819Z,51.25
2019-03-27T20:51:33.594Z,51.82
2019-03-27T20:54:06.506Z,52.15
2019-03-27T20:56:41.431Z,52.55
2019-03-27T20:59:18.242Z,53.08
2019-03-27T21:01:50.060Z,53.51
2019-03-27T21:04:22.854Z,54.18
2019-03-27T21:06:55.603Z,54.20
2019-03-27T21:09:28.597Z,54.45
2019-03-27T21:12:01.653Z,55.48
2019-03-27T21:14:34.938Z,55.10
2019-03-27T21:17:10.310Z,55.16
2019-03-27T21:19:43.344Z,55.42
2019-03-27T21:22:16.070Z,55.71
2019-03-27T21:24:48.989Z,56.29
2019-03-27T21:27:21.679Z,56.52
2019-03-27T21:29:54.964Z,56.54
2019-03-27T21:32:27.923Z,56.44
2019-03-27T21:35:00.829Z,56.72
2019-03-27T21:37:33.566Z,56.81
2019-03-27T21:40:08.011Z,56.97
2019-03-27T21:42:43.127Z,57.25
2019-03-27T21:45:15.974Z,57.73
2019-03-27T21:47:48.608Z,57.69
2019-03-27T21:50:22.562Z,57.51
2019-03-27T21:53:00.774Z,57.58
2019-03-27T21:55:41.920Z,58.88
2019-03-27T21:58:04.172Z,58.50
2019-03-27T22:00:41.779Z,59.09
2019-03-27T22:03:14.509Z,59.03
2019-03-27T22:05:47.381Z,59.42
2019-03-27T22:08:20.110Z,59.85
2019-03-27T22:10:52.805Z,60.59
2019-03-27T22:13:25.475Z,60.28
2019-03-27T22:16:03.675Z,60.31
2019-03-27T22:18:36.282Z,59.86
2019-03-27T22:21:09.264Z,60.92
2019-03-27T22:23:43.889Z,60.66
2019-03-27T22:26:16.610Z,60.78
2019-03-27T22:28:49.238Z,61.21
2019-03-27T22:31:22.244Z,61.42
2019-03-27T22:33:54.849Z,60.92
2019-03-27T22:36:27.519Z,61.16
2019-03-27T22:39:00.129Z,61.65
2019-03-27T22:41:34.994Z,62.21
2019-03-27T22:44:07.715Z,62.36
2019-03-27T22:46:41.202Z,61.98
2019-03-27T22:49:13.919Z,62.35
2019-03-27T22:51:46.838Z,62.52
2019-03-27T22:54:19.451Z,63.02
2019-03-27T22:56:52.343Z,62.93
2019-03-27T22:59:25.089Z,63.21
2019-03-27T23:01:58.391Z,63.34
2019-03-27T23:04:31.262Z,64.14
2019-03-27T23:07:04.076Z,64.66
2019-03-27T23:09:36.792Z,65.17
2019-03-27T23:12:09.722Z,65.02
2019-03-27T23:14:42.391Z,64.79
2019-03-27T23:17:15.499Z,65.17
2019-03-27T23:19:51.410Z,65.15
2019-03-27T23:22:25.972Z,65.62
2019-03-27T23:24:58.568Z,65.57
2019-03-27T23:27:31.649Z,66.12
2019-03-27T23:30:05.385Z,66.42
2019-03-27T23:32:38.721Z,66.54
2019-03-27T23:35:11.859Z,66.58
2019-03-27T23:37:47.033Z,66.70
2019-03-27T23:40:19.714Z,66.41
2019-03-27T23:42:52.425Z,66.64
2019-03-27T23:45:25.142Z,66.22
2019-03-27T23:47:58.404Z,66.65
2019-03-27T23:50:31.099Z,66.75
2019-03-27T23:53:04.938Z,66.62
2019-03-27T23:55:38.517Z,66.79
2019-03-27T23:58:11.291Z,66.90
